Time;durP1;ratioP1;P1;durP2;ratioP2;P2;SDS_P1;SDS_P2;PMS_P1;PMS_P2;Temp;Humidity;BMP_temperature;BMP_pressure;BME280_temperature;BME280_humidity;BME280_pressure;Samples;Min_cycle;Max_cycle;Signal;HPM_P1;HPM_P2
2023/01/22 00:00:41;;;;;;;0.30;0.30;;;4.30;28.90;;;;;;6121421;23;20364;-74
2023/01/22 00:03:07;;;;;;;0.30;0.30;;;4.30;29.00;;;;;;6121598;23;20407;-76
2023/01/22 00:05:35;;;;;;;0.30;0.30;;;4.20;29.10;;;;;;6122934;23;20439;-75
2023/01/22 00:08:02;;;;;;;0.30;0.30;;;4.20;29.00;;;;;;6123172;23;20376;-75
2023/01/22 00:10:31;;;;;;;0.30;0.30;;;4.20;29.00;;;;;;6118812;23;20444;-74
2023/01/22 00:12:58;;;;;;;0.50;0.20;;;4.20;29.50;;;;;;6120303;23;20462;-74
2023/01/22 00:15:25;;;;;;;0.30;0.30;;;4.10;29.30;;;;;;6120130;23;20848;-75
2023/01/22 00:17:52;;;;;;;0.30;0.30;;;4.10;29.40;;;;;;6121538;23;20396;-75
2023/01/22 00:20:19;;;;;;;0.30;0.30;;;4.00;29.70;;;;;;6120127;23;20380;-75
2023/01/22 00:22:46;;;;;;;0.30;0.30;;;4.00;29.60;;;;;;6121478;23;20423;-75
2023/01/22 00:25:15;;;;;;;0.60;0.40;;;4.00;29.70;;;;;;6122824;23;20390;-77
2023/01/22 00:27:42;;;;;;;0.60;0.30;;;3.90;29.70;;;;;;6120487;23;20470;-75
2023/01/22 00:30:10;;;;;;;0.30;0.30;;;3.90;29.90;;;;;;6122799;23;20867;-74
2023/01/22 00:32:37;;;;;;;0.30;0.30;;;3.90;29.80;;;;;;6122091;23;20462;-74
2023/01/22 00:35:04;;;;;;;0.30;0.30;;;3.80;30.00;;;;;;6121396;23;20438;-74
2023/01/22 00:37:31;;;;;;;0.40;0.30;;;3.80;29.80;;;;;;6120386;23;20384;-75
2023/01/22 00:39:58;;;;;;;0.30;0.30;;;3.90;29.90;;;;;;6118164;23;20387;-75
2023/01/22 00:42:25;;;;;;;0.30;0.30;;;3.80;30.00;;;;;;6120674;23;20454;-75
2023/01/22 00:44:52;;;;;;;0.30;0.30;;;3.80;30.10;;;;;;6121661;23;20380;-75
2023/01/22 00:47:19;;;;;;;0.30;0.30;;;3.80;30.00;;;;;;6121689;23;20395;-75
2023/01/22 00:49:46;;;;;;;0.30;0.30;;;3.80;30.00;;;;;;6119214;23;20435;-75
2023/01/22 00:52:13;;;;;;;0.30;0.30;;;3.80;30.00;;;;;;6122901;23;20473;-76
2023/01/22 00:54:40;;;;;;;0.43;0.30;;;3.90;29.60;;;;;;6121898;23;20411;-75
2023/01/22 00:57:06;;;;;;;0.30;0.30;;;4.00;29.50;;;;;;6119689;23;20379;-75
2023/01/22 00:59:33;;;;;;;0.25;0.25;;;3.90;29.70;;;;;;6120516;23;20713;-75
2023/01/22 01:02:00;;;;;;;0.40;0.30;;;3.90;30.00;;;;;;6121060;23;20701;-75
2023/01/22 01:04:27;;;;;;;0.30;0.30;;;3.70;30.40;;;;;;6121773;23;20379;-75
2023/01/22 01:06:54;;;;;;;0.20;0.20;;;3.70;30.60;;;;;;6078336;23;20744;-75
2023/01/22 01:09:21;;;;;;;0.30;0.30;;;3.60;30.40;;;;;;6121054;23;20415;-76
2023/01/22 01:11:48;;;;;;;0.40;0.40;;;3.60;30.50;;;;;;6122298;23;20422;-75
2023/01/22 01:14:15;;;;;;;0.30;0.30;;;3.60;30.60;;;;;;6123233;23;20383;-75
2023/01/22 01:16:42;;;;;;;0.60;0.30;;;3.60;30.70;;;;;;6124007;23;20415;-75
2023/01/22 01:19:11;;;;;;;0.30;0.30;;;3.50;30.80;;;;;;6123262;23;20456;-75
2023/01/22 01:21:38;;;;;;;0.30;0.30;;;3.50;30.60;;;;;;6123333;23;20383;-75
2023/01/22 01:24:05;;;;;;;0.30;0.30;;;3.50;30.50;;;;;;6123724;23;20380;-74
2023/01/22 01:26:34;;;;;;;0.30;0.30;;;3.50;30.60;;;;;;6122050;23;20439;-75
2023/01/22 01:29:05;;;;;;;0.30;0.30;;;3.50;30.90;;;;;;6124495;23;20372;-75
2023/01/22 01:31:32;;;;;;;0.30;0.30;;;3.40;31.20;;;;;;6121983;23;20391;-75
2023/01/22 01:33:59;;;;;;;0.30;0.30;;;3.30;31.80;;;;;;6124143;23;20379;-75
2023/01/22 01:36:25;;;;;;;0.30;0.30;;;3.20;31.40;;;;;;6122319;23;20376;-79
2023/01/22 01:39:12;;;;;;;0.40;0.40;;;3.20;31.40;;;;;;6123054;23;20376;-75
2023/01/22 01:41:39;;;;;;;0.30;0.30;;;3.30;31.10;;;;;;6123611;23;20761;-75
2023/01/22 01:44:15;;;;;;;0.30;0.30;;;3.30;31.10;;;;;;6123243;23;20415;-75
2023/01/22 01:47:04;;;;;;;0.30;0.30;;;3.30;31.20;;;;;;6122311;23;20425;-75
2023/01/22 01:49:43;;;;;;;0.60;0.30;;;3.30;31.10;;;;;;6123932;23;20439;-75
2023/01/22 01:52:12;;;;;;;0.30;0.30;;;3.20;31.40;;;;;;6122934;23;20448;-75
2023/01/22 01:54:41;;;;;;;0.30;0.30;;;3.20;31.40;;;;;;6122150;23;20375;-75
2023/01/22 01:57:15;;;;;;;0.30;0.30;;;3.20;31.40;;;;;;6123165;23;20423;-75
2023/01/22 01:59:44;;;;;;;0.30;0.30;;;3.10;31.40;;;;;;6123430;23;20434;-75
2023/01/22 02:02:11;;;;;;;0.30;0.30;;;3.20;31.20;;;;;;6123203;23;20410;-74
2023/01/22 08:06:33;;;;;;;0.50;0.50;;;2.50;34.50;;;;;;6099662;23;20383;-75
2023/01/22 08:09:00;;;;;;;0.50;0.50;;;2.50;34.50;;;;;;6122926;23;20863;-75
2023/01/22 08:11:27;;;;;;;0.50;0.50;;;2.50;34.70;;;;;;6123177;23;20449;-75
2023/01/22 08:13:54;;;;;;;0.40;0.40;;;2.50;34.80;;;;;;6148859;23;20691;-75
2023/01/22 08:16:21;;;;;;;0.40;0.40;;;2.60;34.80;;;;;;6150970;23;20374;-75
2023/01/22 08:18:48;;;;;;;0.40;0.40;;;2.50;34.80;;;;;;6149881;23;20393;-76
2023/01/22 08:21:15;;;;;;;0.40;0.40;;;2.60;34.80;;;;;;6150971;23;20381;-75
2023/01/22 08:23:42;;;;;;;0.40;0.40;;;2.70;34.10;;;;;;6152367;23;20909;-75
2023/01/22 08:26:13;;;;;;;0.38;0.38;;;2.70;34.20;;;;;;6150925;23;20386;-75
2023/01/22 08:28:40;;;;;;;0.70;0.43;;;2.80;33.80;;;;;;6151309;23;20413;-75
2023/01/22 08:31:07;;;;;;;0.50;0.50;;;2.80;34.00;;;;;;6149607;23;20409;-75
2023/01/22 08:33:48;;;;;;;1.27;0.50;;;2.70;34.50;;;;;;6151009;23;20433;-76
2023/01/22 08:36:15;;;;;;;0.50;0.50;;;2.80;34.40;;;;;;6150604;23;20366;-75
2023/01/22 08:38:42;;;;;;;0.50;0.50;;;2.80;34.40;;;;;;6151056;23;20374;-75
2023/01/22 08:41:09;;;;;;;0.70;0.40;;;2.80;34.10;;;;;;6150078;23;20373;-75
2023/01/22 08:43:36;;;;;;;0.50;0.50;;;2.90;34.10;;;;;;6150481;23;20378;-75
2023/01/22 08:46:03;;;;;;;0.40;0.40;;;2.90;33.60;;;;;;6152003;23;20369;-75
2023/01/22 08:48:29;;;;;;;0.60;0.50;;;3.00;33.50;;;;;;6151212;23;20754;-75
2023/01/22 08:50:59;;;;;;;0.40;0.40;;;3.00;33.70;;;;;;6150507;23;20457;-75
2023/01/22 08:53:27;;;;;;;0.40;0.40;;;3.10;33.60;;;;;;6152516;23;20389;-75
2023/01/22 08:55:56;;;;;;;0.40;0.40;;;3.10;33.20;;;;;;6150617;23;20377;-75
2023/01/22 08:58:24;;;;;;;0.40;0.40;;;3.10;33.30;;;;;;6150748;23;20421;-75
2023/01/22 09:00:51;;;;;;;0.40;0.40;;;3.10;33.60;;;;;;6150641;23;20389;-75
2023/01/22 09:03:17;;;;;;;0.32;0.32;;;3.10;33.80;;;;;;6151195;23;20382;-75
2023/01/22 09:05:44;;;;;;;0.40;0.40;;;3.10;33.40;;;;;;6150499;23;20776;-75
2023/01/22 09:08:11;;;;;;;0.40;0.40;;;3.10;33.50;;;;;;6149511;23;20882;-75
2023/01/22 09:10:39;;;;;;;0.40;0.40;;;3.10;33.40;;;;;;6150921;23;20374;-75
2023/01/22 09:13:06;;;;;;;0.30;0.30;;;3.20;33.40;;;;;;6150161;23;20394;-75
2023/01/22 09:15:32;;;;;;;0.40;0.40;;;3.20;33.60;;;;;;6150861;23;20454;-76
2023/01/22 09:17:59;;;;;;;0.40;0.40;;;3.20;33.00;;;;;;6149773;23;20413;-75
2023/01/22 09:20:27;;;;;;;0.40;0.40;;;3.20;33.60;;;;;;6151486;23;20394;-75
2023/01/22 09:22:53;;;;;;;0.30;0.30;;;3.20;33.60;;;;;;6152268;23;20424;-75
2023/01/22 09:25:20;;;;;;;0.35;0.35;;;3.20;33.90;;;;;;6150144;23;20704;-77
2023/01/22 09:27:47;;;;;;;0.50;0.50;;;3.20;33.50;;;;;;6149566;23;20382;-75
2023/01/22 09:30:15;;;;;;;0.47;0.47;;;3.20;34.10;;;;;;6150547;23;20873;-78
2023/01/22 09:32:42;;;;;;;0.40;0.40;;;3.40;33.40;;;;;;6152796;23;20373;-76
2023/01/22 09:35:09;;;;;;;0.38;0.38;;;3.40;33.10;;;;;;6149563;23;20781;-75
2023/01/22 09:37:36;;;;;;;0.40;0.40;;;3.50;33.00;;;;;;6153297;23;20413;-75
2023/01/22 09:40:03;;;;;;;0.70;0.30;;;3.60;33.00;;;;;;6151320;23;20378;-76
2023/01/22 09:42:39;;;;;;;0.40;0.40;;;3.60;33.50;;;;;;6151278;23;20393;-76
2023/01/22 09:45:10;;;;;;;0.40;0.40;;;3.70;32.70;;;;;;6149352;23;20385;-76
2023/01/22 09:47:48;;;;;;;0.30;0.30;;;3.80;32.80;;;;;;6150848;23;20461;-77
2023/01/22 09:50:25;;;;;;;0.40;0.40;;;3.70;32.70;;;;;;6149114;23;20445;-76
2023/01/22 09:52:56;;;;;;;0.40;0.40;;;3.80;32.90;;;;;;6152966;23;20401;-76
2023/01/22 09:55:28;;;;;;;0.40;0.40;;;3.90;32.60;;;;;;6150480;23;20362;-76
2023/01/22 09:58:00;;;;;;;0.40;0.40;;;4.00;32.70;;;;;;6151550;23;20432;-76
2023/01/22 10:00:52;;;;;;;0.40;0.40;;;4.00;32.90;;;;;;6150610;23;20373;-76
2023/01/22 10:03:44;;;;;;;0.40;0.40;;;4.00;32.80;;;;;;6150676;23;20378;-76
2023/01/22 10:06:20;;;;;;;0.40;0.40;;;4.00;32.90;;;;;;6151454;23;20378;-76
2023/01/22 10:09:11;;;;;;;0.40;0.40;;;4.10;32.90;;;;;;6153974;23;20398;-76
2023/01/22 10:11:38;;;;;;;0.70;0.40;;;4.20;32.40;;;;;;6151328;23;20406;-76
2023/01/22 10:14:10;;;;;;;0.40;0.40;;;4.20;32.70;;;;;;6152683;23;20873;-76
2023/01/22 10:16:37;;;;;;;0.38;0.38;;;4.20;32.80;;;;;;6150695;23;20366;-76
2023/01/22 10:19:13;;;;;;;0.30;0.30;;;4.30;32.90;;;;;;6153150;23;20370;-76
2023/01/22 10:21:46;;;;;;;0.30;0.30;;;4.30;32.40;;;;;;6175720;23;20390;-76
2023/01/22 10:24:13;;;;;;;0.30;0.30;;;4.40;32.70;;;;;;6152023;23;20424;-77
2023/01/22 10:26:53;;;;;;;0.30;0.30;;;4.50;32.40;;;;;;6151140;23;20857;-77
2023/01/22 10:29:33;;;;;;;0.30;0.30;;;4.50;32.90;;;;;;6151541;23;20471;-76
2023/01/22 10:32:22;;;;;;;0.90;0.40;;;4.60;32.40;;;;;;6151493;23;20384;-77
2023/01/22 10:35:06;;;;;;;0.30;0.30;;;4.70;32.10;;;;;;6151403;23;20425;-76
2023/01/22 10:37:47;;;;;;;0.30;0.30;;;4.80;31.80;;;;;;6150888;23;20394;-76
2023/01/22 10:40:30;;;;;;;0.30;0.30;;;4.80;31.80;;;;;;6151512;23;20374;-77
2023/01/22 10:43:09;;;;;;;0.32;0.32;;;4.90;31.70;;;;;;6150664;23;20445;-76
2023/01/22 10:45:37;;;;;;;0.40;0.40;;;5.00;31.90;;;;;;6151407;23;20405;-77
2023/01/22 10:48:11;;;;;;;0.40;0.40;;;5.10;31.50;;;;;;6152368;23;20703;-77
2023/01/22 10:50:39;;;;;;;0.35;0.35;;;5.10;32.00;;;;;;6151411;23;20465;-77
2023/01/22 10:53:19;;;;;;;0.32;0.32;;;5.30;31.60;;;;;;6151799;23;20370;-77
2023/01/22 10:55:55;;;;;;;0.30;0.30;;;5.50;31.30;;;;;;6150849;23;20763;-78
2023/01/22 10:58:24;;;;;;;0.40;0.40;;;5.70;30.00;;;;;;6153584;23;20370;-77
2023/01/22 11:00:57;;;;;;;0.40;0.40;;;5.70;29.90;;;;;;6150997;23;20710;-77
2023/01/22 11:03:32;;;;;;;0.30;0.30;;;5.80;31.10;;;;;;6152253;23;20378;-77
2023/01/22 11:06:06;;;;;;;0.40;0.40;;;6.00;30.50;;;;;;6150963;23;20440;-77
2023/01/22 11:08:45;;;;;;;0.30;0.30;;;6.10;29.70;;;;;;6153685;23;20397;-76
2023/01/22 11:11:14;;;;;;;0.30;0.30;;;6.20;29.40;;;;;;6143759;23;20370;-77
2023/01/22 11:13:47;;;;;;;0.30;0.30;;;6.20;30.10;;;;;;6152682;23;20378;-78
2023/01/22 11:16:16;;;;;;;0.30;0.30;;;6.10;30.10;;;;;;6156945;23;21602;-77
2023/01/22 11:18:50;;;;;;;0.40;0.40;;;6.10;30.30;;;;;;6156769;23;20378;-77
2023/01/22 11:21:41;;;;;;;0.30;0.30;;;6.20;30.40;;;;;;6175865;23;20442;-78
2023/01/22 11:24:12;;;;;;;0.50;0.40;;;6.10;29.80;;;;;;6150409;23;20405;-77
2023/01/22 11:26:47;;;;;;;0.30;0.30;;;6.10;30.10;;;;;;6151638;23;20378;-77
2023/01/22 11:29:38;;;;;;;0.30;0.30;;;6.00;31.00;;;;;;6151673;23;20369;-77
2023/01/22 11:32:07;;;;;;;0.40;0.40;;;6.10;29.80;;;;;;6150416;23;20758;-77
2023/01/22 11:35:13;;;;;;;0.43;0.30;;;6.10;30.20;;;;;;6152080;23;20405;-77
2023/01/22 11:38:11;;;;;;;0.40;0.40;;;6.20;30.70;;;;;;6148930;23;20401;-77
2023/01/22 11:40:59;;;;;;;0.30;0.30;;;6.40;30.40;;;;;;6132481;23;20366;-78
2023/01/22 11:43:44;;;;;;;0.30;0.30;;;6.80;30.00;;;;;;6151637;23;20405;-77
2023/01/22 11:46:35;;;;;;;0.40;0.40;;;7.20;30.10;;;;;;6150157;23;20382;-77
2023/01/22 11:49:44;;;;;;;0.30;0.30;;;7.60;29.00;;;;;;6175604;23;20711;-77
2023/01/22 11:52:25;;;;;;;0.30;0.30;;;7.90;29.30;;;;;;6150940;23;20374;-77
2023/01/22 11:55:31;;;;;;;0.32;0.32;;;8.20;28.30;;;;;;6146544;23;20390;-77
2023/01/22 11:58:16;;;;;;;0.30;0.30;;;8.20;27.90;;;;;;6120777;23;20435;-77
2023/01/22 12:00:56;;;;;;;0.30;0.30;;;8.30;28.00;;;;;;6151541;23;20398;-77
2023/01/22 12:03:42;;;;;;;0.30;0.30;;;8.40;28.80;;;;;;6150562;23;20382;-77
2023/01/22 12:06:33;;;;;;;0.30;0.30;;;8.60;28.90;;;;;;6151149;23;20374;-77
2023/01/22 12:09:14;;;;;;;0.30;0.30;;;8.50;29.30;;;;;;6150835;23;20393;-77
2023/01/22 12:11:54;;;;;;;0.30;0.30;;;8.50;29.00;;;;;;6151258;23;20397;-77
2023/01/22 12:14:51;;;;;;;0.30;0.30;;;8.30;30.10;;;;;;6151582;23;20429;-78
2023/01/22 12:17:40;;;;;;;0.30;0.30;;;8.10;30.20;;;;;;6150509;23;20750;-77
2023/01/22 12:20:34;;;;;;;0.40;0.40;;;8.00;30.60;;;;;;6150102;23;20386;-77
2023/01/22 12:23:23;;;;;;;0.30;0.30;;;8.10;30.70;;;;;;6150318;23;20374;-78
2023/01/22 12:26:03;;;;;;;0.40;0.40;;;8.10;31.00;;;;;;6151269;23;20909;-77
2023/01/22 12:28:58;;;;;;;0.30;0.30;;;8.10;30.60;;;;;;6152267;23;20374;-77
2023/01/22 12:31:31;;;;;;;0.30;0.30;;;8.10;31.00;;;;;;6150028;23;20373;-78
2023/01/22 12:34:03;;;;;;;0.30;0.30;;;8.00;30.20;;;;;;6153382;23;20414;-78
2023/01/22 12:36:31;;;;;;;0.70;0.40;;;7.90;31.10;;;;;;6151127;23;20864;-78
2023/01/22 12:38:59;;;;;;;0.40;0.40;;;7.90;31.20;;;;;;6151720;23;20711;-79
2023/01/22 12:41:38;;;;;;;0.40;0.40;;;7.90;31.60;;;;;;6150173;23;20370;-78
2023/01/22 12:44:13;;;;;;;0.30;0.30;;;8.20;30.70;;;;;;6152335;23;20381;-78
2023/01/22 12:46:57;;;;;;;0.30;0.30;;;8.50;30.50;;;;;;6150651;23;20397;-77
2023/01/22 12:49:25;;;;;;;0.30;0.30;;;8.70;30.70;;;;;;6150071;23;20928;-75
2023/01/22 12:51:54;;;;;;;0.30;0.30;;;8.90;28.90;;;;;;6150612;23;20405;-75
2023/01/22 12:54:34;;;;;;;0.40;0.40;;;8.90;29.70;;;;;;6150881;23;20826;-78
2023/01/22 12:57:13;;;;;;;0.30;0.30;;;8.70;30.10;;;;;;6151127;23;20446;-78
2023/01/22 12:59:47;;;;;;;0.68;0.40;;;8.50;30.90;;;;;;6151400;23;20739;-78
2023/01/22 13:02:27;;;;;;;0.70;0.30;;;8.60;30.20;;;;;;6151028;23;20703;-78
2023/01/22 13:04:55;;;;;;;0.70;0.30;;;8.60;29.20;;;;;;6174203;23;20374;-78
2023/01/22 13:07:27;;;;;;;0.40;0.30;;;8.50;29.30;;;;;;6150300;23;20401;-78
2023/01/22 13:10:18;;;;;;;0.30;0.30;;;8.50;29.70;;;;;;6151321;23;20409;-78
2023/01/22 13:12:51;;;;;;;0.33;0.30;;;8.50;30.00;;;;;;6150222;23;20481;-78
2023/01/22 13:15:25;;;;;;;0.30;0.30;;;8.50;30.40;;;;;;6174693;23;20436;-78
2023/01/22 13:18:01;;;;;;;0.30;0.30;;;8.60;30.00;;;;;;6150402;23;20727;-77
2023/01/22 13:20:35;;;;;;;0.30;0.30;;;8.80;30.80;;;;;;6150278;23;20429;-77
2023/01/22 13:23:05;;;;;;;0.30;0.30;;;8.90;30.60;;;;;;6152935;23;20373;-78
2023/01/22 13:25:32;;;;;;;0.30;0.30;;;9.00;30.20;;;;;;6149117;23;20374;-77
2023/01/22 13:28:00;;;;;;;0.30;0.30;;;9.00;30.80;;;;;;6153344;23;20436;-76
2023/01/22 13:30:32;;;;;;;0.30;0.30;;;9.10;30.60;;;;;;6152469;23;20366;-77
2023/01/22 13:33:13;;;;;;;0.30;0.30;;;9.20;30.40;;;;;;6151179;23;20374;-78
2023/01/22 13:35:42;;;;;;;0.30;0.30;;;9.40;30.20;;;;;;6150423;23;20378;-78
2023/01/22 13:38:22;;;;;;;0.30;0.30;;;9.30;30.00;;;;;;6150627;23;20366;-78
2023/01/22 13:41:01;;;;;;;0.30;0.30;;;9.20;30.70;;;;;;6151501;23;20378;-78
2023/01/22 13:43:29;;;;;;;0.60;0.30;;;9.10;31.20;;;;;;6150548;23;20374;-78
2023/01/22 13:45:57;;;;;;;0.30;0.30;;;9.00;31.20;;;;;;6149226;23;20366;-77
2023/01/22 13:48:26;;;;;;;0.30;0.30;;;8.80;31.00;;;;;;6147427;23;20386;-78
2023/01/22 13:50:54;;;;;;;0.30;0.30;;;8.70;31.80;;;;;;6148672;23;20428;-77
2023/01/22 13:53:28;;;;;;;0.30;0.30;;;8.60;32.30;;;;;;6149976;23;20374;-78
2023/01/22 13:55:56;;;;;;;0.30;0.30;;;8.50;31.80;;;;;;6147204;23;20443;-77
2023/01/22 13:58:43;;;;;;;0.30;0.30;;;8.30;32.10;;;;;;6147352;23;20497;-77
2023/01/22 14:01:32;;;;;;;0.30;0.30;;;8.20;32.30;;;;;;6146828;23;20433;-78
2023/01/22 14:04:02;;;;;;;0.30;0.30;;;8.10;32.50;;;;;;6146931;23;20374;-77
2023/01/22 14:06:40;;;;;;;0.30;0.30;;;8.20;33.10;;;;;;6146820;23;20378;-78
2023/01/22 14:09:08;;;;;;;0.30;0.30;;;8.20;32.90;;;;;;6146902;23;20778;-77
2023/01/22 14:11:41;;;;;;;0.30;0.30;;;8.10;32.60;;;;;;6149038;23;20386;-78
2023/01/22 14:14:17;;;;;;;0.40;0.40;;;8.10;32.90;;;;;;6148870;23;20441;-77
2023/01/22 14:16:44;;;;;;;0.65;0.30;;;8.20;33.60;;;;;;6149781;23;20405;-77
2023/01/22 14:19:12;;;;;;;0.35;0.30;;;8.20;33.70;;;;;;6149377;23;20362;-78
2023/01/22 14:21:39;;;;;;;0.38;0.38;;;8.20;33.70;;;;;;6150474;23;20676;-77
2023/01/22 14:24:06;;;;;;;0.40;0.40;;;8.20;33.40;;;;;;6148876;23;20405;-77
2023/01/22 14:26:33;;;;;;;0.30;0.30;;;8.10;33.90;;;;;;6152445;23;20374;-77
2023/01/22 14:29:00;;;;;;;0.32;0.32;;;8.10;33.50;;;;;;6149836;23;20386;-77
2023/01/22 14:31:27;;;;;;;0.30;0.30;;;8.10;32.50;;;;;;6151103;23;20707;-77
2023/01/22 14:33:54;;;;;;;1.00;0.40;;;8.10;32.20;;;;;;6149675;23;20402;-78
2023/01/22 14:36:21;;;;;;;0.50;0.50;;;8.00;32.30;;;;;;6152533;23;20366;-77
2023/01/22 14:38:50;;;;;;;0.40;0.40;;;7.90;32.30;;;;;;6152090;23;20378;-78
2023/01/22 14:41:17;;;;;;;0.40;0.40;;;7.90;32.40;;;;;;6151183;23;20373;-77
2023/01/22 14:43:44;;;;;;;0.90;0.40;;;7.80;32.80;;;;;;6150700;23;20478;-78
2023/01/22 14:46:11;;;;;;;0.50;0.50;;;7.70;33.20;;;;;;6150316;23;20382;-77
2023/01/22 14:48:38;;;;;;;0.47;0.47;;;7.70;33.00;;;;;;6151685;23;20388;-77
2023/01/22 14:51:09;;;;;;;0.40;0.40;;;7.70;32.30;;;;;;6150855;23;20830;-78
2023/01/22 14:53:37;;;;;;;0.50;0.50;;;7.60;31.60;;;;;;6151672;23;20393;-78
2023/01/22 14:56:04;;;;;;;0.40;0.40;;;7.60;31.60;;;;;;6151321;23;20754;-77
2023/01/22 14:58:31;;;;;;;0.80;0.40;;;7.50;31.60;;;;;;6151769;23;20695;-77
2023/01/22 15:00:58;;;;;;;0.40;0.40;;;7.50;31.80;;;;;;6151309;23;20512;-77
2023/01/22 15:03:28;;;;;;;0.40;0.40;;;7.40;32.40;;;;;;6148657;23;20378;-78
2023/01/22 15:05:55;;;;;;;0.30;0.30;;;7.40;33.00;;;;;;6149814;23;20717;-77
2023/01/22 15:08:22;;;;;;;0.30;0.30;;;7.40;33.20;;;;;;6152485;23;20370;-77
2023/01/22 15:10:49;;;;;;;0.30;0.30;;;7.40;32.90;;;;;;6151154;23;20401;-75
2023/01/22 15:13:16;;;;;;;0.40;0.40;;;7.40;32.10;;;;;;6151442;23;20644;-78
2023/01/22 15:15:43;;;;;;;0.35;0.35;;;7.40;32.10;;;;;;6151919;23;20374;-77
2023/01/22 15:18:10;;;;;;;0.30;0.30;;;7.40;32.90;;;;;;6125596;23;20448;-78
2023/01/22 15:20:38;;;;;;;0.40;0.40;;;7.50;33.40;;;;;;6150397;23;20429;-77
2023/01/22 15:23:04;;;;;;;0.30;0.30;;;7.40;33.90;;;;;;6149553;23;20417;-77
2023/01/22 15:25:31;;;;;;;0.30;0.30;;;7.40;34.90;;;;;;6152097;23;20364;-77
2023/01/22 15:27:59;;;;;;;0.40;0.40;;;7.40;35.30;;;;;;6149463;23;20440;-77
2023/01/22 15:30:26;;;;;;;0.40;0.40;;;7.40;35.40;;;;;;6152156;23;20425;-78
2023/01/22 15:32:53;;;;;;;0.40;0.40;;;7.30;34.90;;;;;;6151624;23;20436;-77
2023/01/22 15:35:20;;;;;;;0.40;0.40;;;7.30;34.30;;;;;;6150545;23;20919;-77
2023/01/22 15:37:48;;;;;;;0.50;0.50;;;7.10;32.50;;;;;;6150111;23;20385;-77
2023/01/22 15:40:15;;;;;;;0.50;0.50;;;7.00;32.60;;;;;;6149571;23;20412;-77
2023/01/22 15:42:42;;;;;;;0.50;0.50;;;6.90;33.00;;;;;;6150581;23;20370;-77
2023/01/22 15:45:10;;;;;;;0.50;0.40;;;6.80;33.40;;;;;;6150307;23;20378;-77
2023/01/22 15:47:37;;;;;;;0.60;0.60;;;6.60;33.90;;;;;;6151236;23;20369;-77
2023/01/22 15:50:05;;;;;;;0.60;0.60;;;6.40;34.60;;;;;;6151355;23;20720;-77
2023/01/22 15:52:32;;;;;;;0.60;0.60;;;6.20;35.00;;;;;;6151624;23;20382;-78
2023/01/22 15:54:59;;;;;;;0.70;0.70;;;6.00;35.20;;;;;;6145593;23;20942;-77
2023/01/22 15:57:26;;;;;;;0.60;0.60;;;5.90;35.20;;;;;;6151366;23;20378;-77
2023/01/22 15:59:53;;;;;;;0.70;0.60;;;5.80;36.70;;;;;;6148416;23;20455;-77
2023/01/22 16:02:20;;;;;;;0.70;0.70;;;5.60;36.10;;;;;;6149774;23;20830;-77
2023/01/22 16:04:47;;;;;;;0.98;0.98;;;5.50;35.80;;;;;;6149589;23;20374;-77
2023/01/22 16:07:14;;;;;;;1.17;1.10;;;5.50;33.60;;;;;;6151781;23;20369;-77
2023/01/22 16:09:41;;;;;;;1.08;1.00;;;5.50;32.90;;;;;;6150526;23;20371;-76
2023/01/22 16:12:08;;;;;;;1.20;1.10;;;5.40;32.60;;;;;;6148749;23;20374;-76
2023/01/22 16:14:35;;;;;;;0.90;0.90;;;5.30;32.90;;;;;;6151546;23;20386;-77
2023/01/22 16:17:02;;;;;;;0.90;0.90;;;5.20;33.70;;;;;;6149546;23;20428;-76
2023/01/22 16:19:29;;;;;;;1.00;0.85;;;5.10;34.10;;;;;;6150057;23;20409;-76
2023/01/22 16:21:56;;;;;;;0.80;0.80;;;5.00;34.40;;;;;;6148428;23;20368;-77
2023/01/22 16:24:23;;;;;;;0.70;0.70;;;4.90;35.00;;;;;;6150489;23;20680;-77
2023/01/22 16:26:49;;;;;;;0.80;0.80;;;4.80;35.30;;;;;;6150491;23;20382;-77
2023/01/22 16:29:16;;;;;;;0.80;0.80;;;4.50;35.70;;;;;;6150036;23;20402;-77
2023/01/22 16:31:43;;;;;;;0.70;0.70;;;4.40;36.60;;;;;;6151356;23;20440;-77
2023/01/22 16:34:19;;;;;;;0.70;0.70;;;4.30;36.60;;;;;;6150929;23;20446;-76
2023/01/22 16:36:48;;;;;;;0.70;0.70;;;4.10;36.10;;;;;;6149494;23;20374;-77
2023/01/22 16:39:21;;;;;;;0.60;0.60;;;4.00;36.70;;;;;;6148515;23;20854;-76
2023/01/22 16:41:49;;;;;;;0.50;0.50;;;3.80;35.90;;;;;;6149690;23;20378;-76
2023/01/22 16:44:25;;;;;;;0.50;0.50;;;3.80;35.00;;;;;;6150327;23;20370;-76
2023/01/22 16:46:56;;;;;;;0.53;0.53;;;3.90;34.00;;;;;;6150523;23;20707;-77
2023/01/22 16:49:26;;;;;;;0.73;0.73;;;4.00;33.70;;;;;;6151448;23;20381;-76
2023/01/22 16:51:56;;;;;;;0.90;0.90;;;4.00;34.50;;;;;;6148744;23;20390;-76
2023/01/22 16:54:28;;;;;;;0.93;0.93;;;3.90;34.70;;;;;;6149309;23;20820;-76
2023/01/22 16:57:06;;;;;;;0.90;0.90;;;3.90;35.10;;;;;;6148675;23;20377;-77
2023/01/22 16:59:34;;;;;;;0.80;0.80;;;3.80;36.20;;;;;;6150643;23;20834;-76
2023/01/22 17:02:06;;;;;;;0.97;0.97;;;3.80;36.80;;;;;;6149786;23;20382;-76
2023/01/22 17:04:35;;;;;;;0.63;0.63;;;3.80;37.10;;;;;;6150796;23;20386;-76
2023/01/22 17:07:02;;;;;;;0.80;0.80;;;3.70;37.80;;;;;;6076612;23;20385;-76
2023/01/22 17:09:35;;;;;;;0.70;0.70;;;3.60;38.50;;;;;;6147490;23;20428;-76
2023/01/22 17:12:04;;;;;;;0.82;0.80;;;3.40;39.50;;;;;;6147943;23;20714;-76
2023/01/22 17:14:37;;;;;;;0.73;0.73;;;3.20;40.40;;;;;;6148727;23;20377;-77
2023/01/22 17:17:05;;;;;;;2.10;0.90;;;3.10;40.60;;;;;;6148154;23;20698;-76
2023/01/22 17:19:33;;;;;;;0.80;0.80;;;3.00;41.20;;;;;;6148767;23;20370;-76
2023/01/22 17:22:00;;;;;;;0.88;0.88;;;2.90;42.10;;;;;;6148066;23;20381;-77
2023/01/22 17:24:29;;;;;;;1.20;1.10;;;2.80;42.50;;;;;;6150318;23;20785;-76
2023/01/22 17:26:57;;;;;;;1.60;1.03;;;2.70;43.00;;;;;;6148579;23;20462;-76
2023/01/22 17:29:24;;;;;;;4.60;1.58;;;2.60;43.10;;;;;;6151024;23;20762;-76
2023/01/22 17:31:51;;;;;;;1.57;1.10;;;2.50;43.10;;;;;;6150256;23;20437;-76
2023/01/22 17:34:18;;;;;;;1.00;1.00;;;2.60;42.70;;;;;;6149908;23;20374;-75
2023/01/22 17:36:45;;;;;;;1.20;1.10;;;2.50;42.80;;;;;;6149552;23;20398;-76
2023/01/22 17:39:16;;;;;;;1.50;1.17;;;2.40;42.70;;;;;;6148856;23;20502;-76
2023/01/22 17:41:44;;;;;;;1.40;1.30;;;2.40;42.00;;;;;;6149073;23;20396;-76
2023/01/22 17:44:12;;;;;;;0.90;0.90;;;2.50;40.60;;;;;;6150106;23;20425;-76
2023/01/22 17:46:39;;;;;;;0.90;0.90;;;2.50;40.40;;;;;;6148855;23;20420;-76
2023/01/22 17:49:06;;;;;;;1.02;1.02;;;2.40;40.70;;;;;;6148105;23;20389;-76
2023/01/22 17:51:34;;;;;;;1.40;1.30;;;2.40;42.20;;;;;;6147466;23;20370;-76
2023/01/22 17:54:03;;;;;;;1.08;1.08;;;2.20;44.70;;;;;;6150776;23;20390;-78
2023/01/22 17:56:35;;;;;;;1.20;1.20;;;2.10;44.60;;;;;;6151240;23;20717;-75
2023/01/22 17:59:05;;;;;;;1.38;1.27;;;1.90;46.50;;;;;;6150699;23;20490;-75
2023/01/22 18:01:33;;;;;;;1.40;1.30;;;1.70;49.30;;;;;;6153080;23;20413;-75
2023/01/22 18:04:04;;;;;;;1.63;1.52;;;1.60;49.70;;;;;;6136780;23;20786;-75
2023/01/22 18:06:32;;;;;;;1.20;1.20;;;1.30;51.90;;;;;;6129427;23;20390;-76
2023/01/22 18:08:59;;;;;;;1.55;1.45;;;1.30;51.30;;;;;;6126734;23;20409;-75
2023/01/22 18:11:28;;;;;;;1.15;1.15;;;1.20;53.00;;;;;;6153258;23;20696;-76
2023/01/22 18:13:57;;;;;;;1.40;1.30;;;1.10;52.40;;;;;;6150706;23;20390;-77
2023/01/22 18:16:26;;;;;;;2.00;1.90;;;1.10;53.00;;;;;;6151292;23;20374;-75
2023/01/22 18:18:55;;;;;;;2.33;2.22;;;1.00;53.50;;;;;;6153216;23;20905;-76
2023/01/22 18:21:22;;;;;;;3.10;2.90;;;1.00;53.40;;;;;;6151218;23;20370;-76
2023/01/22 18:23:50;;;;;;;4.13;3.83;;;1.00;52.90;;;;;;6153005;23;20382;-76
2023/01/22 18:26:21;;;;;;;3.70;3.50;;;0.90;52.30;;;;;;6150993;23;20402;-76
2023/01/22 18:28:49;;;;;;;4.80;4.40;;;0.90;52.70;;;;;;6152911;23;20420;-75
2023/01/22 18:31:17;;;;;;;5.63;5.05;;;1.00;52.40;;;;;;6152193;23;20410;-76
2023/01/22 18:33:46;;;;;;;3.90;3.60;;;1.00;51.90;;;;;;6150812;23;20465;-75
2023/01/22 18:36:18;;;;;;;2.92;2.72;;;0.90;52.70;;;;;;6149014;23;20387;-76
2023/01/22 18:38:46;;;;;;;2.47;2.28;;;0.90;53.60;;;;;;6152309;23;20383;-76
2023/01/22 18:41:22;;;;;;;2.45;2.35;;;0.80;53.60;;;;;;6150245;23;20370;-76
2023/01/22 18:43:51;;;;;;;3.00;2.80;;;0.70;54.10;;;;;;6151641;23;20944;-77
2023/01/22 18:46:20;;;;;;;4.28;3.97;;;0.70;54.10;;;;;;6151066;23;20388;-77
2023/01/22 18:48:55;;;;;;;3.58;3.28;;;0.60;53.70;;;;;;6125501;23;20373;-76
2023/01/22 18:51:23;;;;;;;3.30;3.10;;;0.80;53.20;;;;;;6149866;23;20473;-76
2023/01/22 18:53:50;;;;;;;3.95;3.65;;;0.90;52.80;;;;;;6151182;23;20408;-76
2023/01/22 18:56:18;;;;;;;4.25;3.95;;;0.90;52.50;;;;;;6150309;23;20374;-75
2023/01/22 18:58:46;;;;;;;3.20;3.00;;;0.90;52.20;;;;;;6150800;23;20793;-76
2023/01/22 19:01:15;;;;;;;3.40;3.20;;;0.70;53.90;;;;;;6126327;23;20470;-75
2023/01/22 19:03:45;;;;;;;3.28;3.08;;;0.70;53.10;;;;;;6149292;23;20734;-76
2023/01/22 19:06:15;;;;;;;3.40;3.20;;;0.70;53.10;;;;;;6149209;23;20374;-75
2023/01/22 19:08:47;;;;;;;3.10;2.90;;;0.80;52.70;;;;;;6149745;23;20766;-75
2023/01/22 19:11:15;;;;;;;3.10;2.90;;;0.80;52.80;;;;;;6148585;23;20386;-77
2023/01/22 19:13:47;;;;;;;2.55;2.35;;;0.70;52.60;;;;;;6150187;23;20466;-76
2023/01/22 19:16:16;;;;;;;6.88;6.38;;;0.60;52.70;;;;;;6145400;23;20754;-75
2023/01/22 19:18:47;;;;;;;3.08;2.88;;;0.50;53.80;;;;;;6151562;23;20853;-76
2023/01/22 19:21:17;;;;;;;2.80;2.60;;;0.50;53.20;;;;;;6150824;23;20506;-75